Terminal Aerodrome Forecast
Issued by NWS

Home | Current Version | Previous Version | Text Only | Print | Product List | Glossary On
Versions: 1 2 3 4 5 6 7 8 9 10 11 12 13 14 15 16 17 18 19 20 21 22 23 24 25 26 27 28 29 30 31 32
798
FTUS45 KBOU 100909 AAB
TAFAPA
TAF AMD
KAPA 100909Z 1009/1106 17006KT P6SM SKC
     FM101700 25007KT P6SM FEW220
     FM101900 02006KT P6SM FEW220
     FM102100 06012KT P6SM SCT220
     FM110000 13008KT P6SM FEW220
     FM110200 18007KT P6SM FEW220=

USA.gov is the U.S. government's official web portal to all federal, state and local government web resources and services.